createdAt,value
2022-08-07T00:00:03.648Z,18.5
2022-08-07T00:01:00.923Z,18.5
2022-08-07T00:02:40.416Z,18.5
2022-08-07T00:03:00.606Z,18.5
2022-08-07T00:04:01.258Z,18.5
2022-08-07T00:05:01.728Z,18.5
2022-08-07T00:06:00.689Z,18.5
2022-08-07T00:07:01.417Z,18.6
2022-08-07T00:08:02.190Z,18.6
2022-08-07T00:09:16.911Z,18.6
2022-08-07T00:10:26.359Z,18.5
2022-08-07T00:11:01.505Z,18.4
2022-08-07T00:12:01.245Z,18.4
2022-08-07T00:13:02.285Z,18.3
2022-08-07T00:14:01.467Z,18.3
2022-08-07T00:15:01.525Z,18.3
2022-08-07T00:16:01.134Z,18.2
2022-08-07T00:17:01.890Z,18.2
2022-08-07T00:18:01.132Z,18.1
2022-08-07T00:19:01.113Z,18.1
2022-08-07T00:20:03.333Z,18.2
2022-08-07T00:21:03.307Z,18.2
2022-08-07T00:22:02.209Z,18.1
2022-08-07T00:23:00.768Z,18.1
2022-08-07T00:24:00.850Z,18.1
2022-08-07T00:25:00.464Z,18.1
2022-08-07T00:26:13.277Z,18.1
2022-08-07T00:27:07.470Z,18.1
2022-08-07T00:28:01.349Z,18.1
2022-08-07T00:29:00.861Z,18.1
2022-08-07T00:30:01.109Z,18.1
2022-08-07T00:31:00.813Z,18.1
2022-08-07T00:32:00.566Z,18.1
2022-08-07T00:33:00.237Z,18.1
2022-08-07T00:34:00.086Z,18.1
2022-08-07T00:34:59.842Z,18.1
2022-08-07T00:35:59.856Z,18.1
2022-08-07T00:36:59.814Z,18.1
2022-08-07T00:37:59.810Z,18.1
2022-08-07T00:39:01.574Z,18.1
2022-08-07T00:40:00.603Z,18.1
2022-08-07T00:41:00.720Z,18.1
2022-08-07T00:42:01.890Z,18.1
2022-08-07T00:43:01.633Z,18.1
2022-08-07T00:44:02.950Z,18.1
2022-08-07T00:45:01.340Z,18.2
2022-08-07T00:46:05.498Z,18.2
2022-08-07T00:47:00.619Z,18.1
2022-08-07T00:48:08.352Z,18.1
2022-08-07T00:49:02.037Z,18.1
2022-08-07T00:50:20.124Z,18.1
2022-08-07T00:51:06.918Z,18.1
2022-08-07T00:52:00.839Z,18.1
2022-08-07T00:53:00.544Z,18.1
2022-08-07T00:54:00.197Z,18.1
2022-08-07T00:54:59.884Z,18
2022-08-07T00:56:13.953Z,18
2022-08-07T00:57:00.546Z,18
2022-08-07T00:58:00.431Z,18
2022-08-07T00:59:00.084Z,18
2022-08-07T00:59:59.809Z,18
2022-08-07T01:01:11.196Z,18
2022-08-07T01:02:00.989Z,18
2022-08-07T01:03:00.708Z,18
2022-08-07T01:04:00.750Z,17.9
2022-08-07T01:05:01.114Z,17.9
2022-08-07T01:06:11.385Z,17.9
2022-08-07T01:07:01.383Z,17.9
2022-08-07T01:08:01.031Z,17.9
2022-08-07T01:09:01.485Z,17.8
2022-08-07T01:10:04.218Z,17.8
2022-08-07T01:12:04.821Z,17.9
2022-08-07T01:12:28.076Z,17.9
2022-08-07T01:13:01.827Z,17.9
2022-08-07T01:14:00.911Z,17.8
2022-08-07T01:15:01.481Z,17.8
2022-08-07T01:16:15.492Z,17.8
2022-08-07T01:17:04.247Z,17.8
2022-08-07T01:18:00.926Z,17.8
2022-08-07T01:19:00.983Z,17.8
2022-08-07T01:20:01.978Z,17.8
2022-08-07T01:21:01.662Z,17.8
2022-08-07T01:22:00.966Z,17.8
2022-08-07T01:23:12.882Z,17.8
2022-08-07T01:24:01.218Z,17.7
2022-08-07T01:25:00.858Z,17.7
2022-08-07T01:26:01.071Z,17.7
2022-08-07T01:27:00.781Z,17.7
2022-08-07T01:28:00.568Z,17.7
2022-08-07T01:29:00.297Z,17.7
2022-08-07T01:30:00.695Z,17.7
2022-08-07T01:31:00.861Z,17.6
2022-08-07T01:32:01.109Z,17.6
2022-08-07T01:33:00.605Z,17.6
2022-08-07T01:34:00.937Z,17.6
2022-08-07T01:35:00.981Z,17.6
2022-08-07T01:36:06.229Z,17.6
2022-08-07T01:37:01.366Z,17.6
2022-08-07T01:38:00.631Z,17.6
2022-08-07T01:39:00.395Z,17.6
2022-08-07T01:40:00.784Z,17.5
2022-08-07T01:41:00.526Z,17.5
2022-08-07T01:42:07.395Z,17.5
2022-08-07T01:43:03.340Z,17.4
2022-08-07T01:44:01.793Z,17.3
2022-08-07T01:45:01.206Z,17.3
2022-08-07T01:46:00.993Z,17.4
2022-08-07T01:47:01.042Z,17.4
2022-08-07T01:48:21.030Z,17.4
2022-08-07T01:49:02.226Z,17.4
2022-08-07T01:50:01.233Z,17.4
2022-08-07T01:51:24.304Z,17.5
2022-08-07T01:52:04.738Z,17.4
2022-08-07T01:53:01.154Z,17.5
2022-08-07T01:54:11.784Z,17.4
2022-08-07T01:55:01.094Z,17.4
2022-08-07T01:56:00.792Z,17.3
2022-08-07T01:57:01.290Z,17.3
2022-08-07T01:58:27.195Z,17.3
2022-08-07T01:59:01.017Z,17.3
2022-08-07T02:00:00.786Z,17.2
2022-08-07T02:01:09.430Z,17.2
2022-08-07T02:02:02.494Z,17.1
2022-08-07T02:03:12.204Z,17.1
2022-08-07T02:04:00.775Z,17.1
2022-08-07T02:05:00.522Z,17.1
2022-08-07T02:06:01.302Z,17.1
2022-08-07T02:07:01.032Z,17.1
2022-08-07T02:08:00.690Z,17.1
2022-08-07T02:09:00.443Z,17.1
2022-08-07T02:10:00.645Z,17.1
2022-08-07T02:11:00.371Z,17.1
2022-08-07T02:12:04.111Z,17.1
2022-08-07T02:13:01.311Z,17.1
2022-08-07T02:14:02.474Z,17.1
2022-08-07T02:15:01.110Z,17.1
2022-08-07T02:16:01.374Z,17.1
2022-08-07T02:17:01.519Z,17.1
2022-08-07T02:18:01.042Z,17.1
2022-08-07T02:19:01.320Z,17.1
2022-08-07T02:20:07.204Z,17.1
2022-08-07T02:21:01.265Z,17.1
2022-08-07T02:22:01.503Z,17.1
2022-08-07T02:23:01.162Z,17.1
2022-08-07T02:24:00.553Z,17.1
2022-08-07T02:25:00.859Z,17.1
2022-08-07T02:26:31.342Z,17.1
2022-08-07T02:27:02.496Z,17.1
2022-08-07T02:28:01.096Z,17.1
2022-08-07T02:29:01.102Z,17.1
2022-08-07T02:30:03.931Z,17.1
2022-08-07T02:31:01.754Z,17.1
2022-08-07T02:32:01.297Z,17.1
2022-08-07T02:33:09.483Z,17.1
2022-08-07T02:34:04.005Z,17
2022-08-07T02:35:01.183Z,16.9
2022-08-07T02:36:30.361Z,16.8
2022-08-07T02:37:01.127Z,16.8
2022-08-07T02:38:00.828Z,16.7
2022-08-07T02:39:00.940Z,16.7
2022-08-07T02:40:12.059Z,16.7
2022-08-07T02:41:00.752Z,16.7
2022-08-07T02:42:01.059Z,16.7
2022-08-07T02:43:00.714Z,16.8
2022-08-07T02:44:00.483Z,16.8
2022-08-07T02:45:00.265Z,16.8
2022-08-07T02:46:02.863Z,16.8
2022-08-07T02:47:02.510Z,16.8
2022-08-07T02:48:01.758Z,16.9
2022-08-07T02:49:03.347Z,16.8
2022-08-07T02:50:01.531Z,16.9
2022-08-07T02:51:00.961Z,16.9
2022-08-07T02:52:04.672Z,16.9
2022-08-07T02:53:03.415Z,16.9
2022-08-07T02:54:01.057Z,16.9
2022-08-07T02:55:00.962Z,17
2022-08-07T02:56:03.622Z,17
2022-08-07T02:57:07.465Z,17
2022-08-07T02:58:01.572Z,16.9
2022-08-07T02:59:01.182Z,16.8
2022-08-07T03:00:04.919Z,16.8
2022-08-07T03:01:00.976Z,16.7
2022-08-07T03:02:10.405Z,16.6
2022-08-07T03:03:06.080Z,16.6
2022-08-07T03:04:03.487Z,16.5
2022-08-07T03:05:05.219Z,16.5
2022-08-07T03:06:01.554Z,16.5
2022-08-07T03:07:10.913Z,16.4
2022-08-07T03:08:07.255Z,16.3
2022-08-07T03:09:01.736Z,16.4
2022-08-07T03:10:01.152Z,16.3
2022-08-07T03:11:01.461Z,16.3
2022-08-07T03:12:19.177Z,16.3
2022-08-07T03:13:01.535Z,16.3
2022-08-07T03:14:02.540Z,16.3
2022-08-07T03:15:02.565Z,16.3
2022-08-07T03:16:01.286Z,16.4
2022-08-07T03:17:15.129Z,16.4
2022-08-07T03:18:01.582Z,16.5
2022-08-07T03:19:00.780Z,16.5
2022-08-07T03:20:00.427Z,16.5
2022-08-07T03:21:00.101Z,16.5
2022-08-07T03:21:59.785Z,16.6
2022-08-07T03:23:01.455Z,16.6
2022-08-07T03:24:18.410Z,16.6
2022-08-07T03:25:01.131Z,16.6
2022-08-07T03:26:00.742Z,16.6
2022-08-07T03:27:01.159Z,16.6
2022-08-07T03:28:09.431Z,16.6
2022-08-07T03:29:01.588Z,16.6
2022-08-07T03:30:01.305Z,16.6
2022-08-07T03:31:01.094Z,16.6
2022-08-07T03:32:01.491Z,16.5
2022-08-07T03:33:01.095Z,16.5
2022-08-07T03:34:00.818Z,16.5
2022-08-07T03:35:16.957Z,16.5
2022-08-07T03:36:02.508Z,16.5
2022-08-07T03:37:01.293Z,16.5
2022-08-07T03:38:01.637Z,16.5
2022-08-07T03:39:05.487Z,16.5
2022-08-07T03:40:14.868Z,16.5
2022-08-07T03:41:02.058Z,16.4
2022-08-07T03:42:00.862Z,16.4
2022-08-07T03:43:00.760Z,16.4
2022-08-07T03:44:00.470Z,16.4
2022-08-07T03:45:00.147Z,16.4
2022-08-07T03:46:02.853Z,16.4
2022-08-07T03:47:11.355Z,16.4
2022-08-07T03:48:00.693Z,16.3
2022-08-07T03:49:02.845Z,16.3
2022-08-07T03:50:00.711Z,16.3
2022-08-07T03:51:00.421Z,16.3
2022-08-07T03:52:01.250Z,16.4
2022-08-07T03:53:00.916Z,16.4
2022-08-07T03:54:33.212Z,16.4
2022-08-07T03:55:06.503Z,16.5
2022-08-07T03:56:04.329Z,16.5
2022-08-07T03:57:03.931Z,16.5
2022-08-07T03:58:17.978Z,16.5
2022-08-07T03:59:08.954Z,16.5
2022-08-07T04:00:02.782Z,16.5
2022-08-07T04:01:01.768Z,16.4
2022-08-07T04:02:01.453Z,16.3
2022-08-07T04:03:04.362Z,16.2
2022-08-07T04:04:04.851Z,16.1
2022-08-07T04:05:00.696Z,16.1
2022-08-07T04:06:00.377Z,16.1
2022-08-07T04:07:00.338Z,16
2022-08-07T04:08:00.486Z,16
2022-08-07T04:09:00.225Z,16
2022-08-07T04:10:02.874Z,16
2022-08-07T04:12:25.604Z,16
2022-08-07T04:12:26.521Z,15.9
2022-08-07T04:13:01.460Z,15.9
2022-08-07T04:14:33.058Z,16
2022-08-07T04:15:01.375Z,16
2022-08-07T04:16:02.184Z,16
2022-08-07T04:17:03.142Z,16
2022-08-07T04:18:32.045Z,16
2022-08-07T04:19:04.280Z,16
2022-08-07T04:19:59.726Z,16
2022-08-07T04:21:01.282Z,15.9
2022-08-07T04:22:08.688Z,16
2022-08-07T04:23:02.094Z,16
2022-08-07T04:24:07.123Z,16.1
2022-08-07T04:25:02.101Z,16.2
2022-08-07T04:26:00.663Z,16.3
2022-08-07T04:27:01.157Z,16.3
2022-08-07T04:28:01.239Z,16.4
2022-08-07T04:29:00.953Z,16.5
2022-08-07T04:30:01.808Z,16.6
2022-08-07T04:31:01.220Z,16.6
2022-08-07T04:32:03.441Z,16.8
2022-08-07T04:33:01.355Z,16.8
2022-08-07T04:34:01.495Z,16.9
2022-08-07T04:35:00.980Z,17
2022-08-07T04:36:01.194Z,17.1
2022-08-07T04:37:01.503Z,17.1
2022-08-07T04:38:05.522Z,17.2
2022-08-07T04:39:01.357Z,17.3
2022-08-07T04:40:01.199Z,17.3
2022-08-07T04:41:01.133Z,17.4
2022-08-07T04:42:01.030Z,17.5
2022-08-07T04:43:01.618Z,17.5
2022-08-07T04:44:12.844Z,17.6
2022-08-07T04:45:03.243Z,17.6
2022-08-07T04:46:02.174Z,17.6
2022-08-07T04:47:07.811Z,17.6
2022-08-07T04:48:09.854Z,17.6
2022-08-07T04:49:01.559Z,17.7
2022-08-07T04:50:04.444Z,17.8
2022-08-07T04:51:01.604Z,17.8
2022-08-07T04:52:01.524Z,17.9
2022-08-07T04:53:04.684Z,17.8
2022-08-07T04:54:06.313Z,17.8
2022-08-07T04:55:00.706Z,17.8
2022-08-07T04:58:11.157Z,17.8
2022-08-07T04:58:14.586Z,17.8
2022-08-07T04:58:25.023Z,17.8
2022-08-07T04:59:18.214Z,17.8
2022-08-07T05:00:09.818Z,17.8
2022-08-07T05:01:01.518Z,17.8
2022-08-07T05:02:01.539Z,17.8
2022-08-07T05:03:31.276Z,17.8
2022-08-07T05:04:07.985Z,17.8
2022-08-07T05:05:02.338Z,17.8
2022-08-07T05:06:00.915Z,17.9
2022-08-07T05:07:19.853Z,17.9
2022-08-07T05:08:16.544Z,17.9
2022-08-07T05:09:02.536Z,17.9
2022-08-07T05:10:00.975Z,17.9
2022-08-07T05:11:02.662Z,17.9
2022-08-07T05:12:02.697Z,18
2022-08-07T05:13:09.850Z,18.1
2022-08-07T05:14:52.439Z,18.1
2022-08-07T05:15:04.302Z,18.1
2022-08-07T05:16:04.438Z,18.2
2022-08-07T05:17:01.431Z,18.3
2022-08-07T05:18:08.809Z,18.4
2022-08-07T05:19:01.009Z,18.5
2022-08-07T05:20:04.351Z,18.6
2022-08-07T05:21:01.605Z,18.8
2022-08-07T05:22:01.944Z,19
2022-08-07T05:23:00.800Z,19.2
2022-08-07T05:24:01.546Z,19.4
2022-08-07T05:25:00.911Z,19.6
2022-08-07T05:26:13.581Z,19.8
2022-08-07T05:27:02.375Z,20
2022-08-07T05:28:16.246Z,20.2
2022-08-07T05:29:04.387Z,20.3
2022-08-07T05:30:00.956Z,20.5
2022-08-07T05:31:00.974Z,20.6
2022-08-07T05:32:01.464Z,20.8
2022-08-07T05:33:02.505Z,20.8
2022-08-07T05:34:04.297Z,20.7
2022-08-07T05:35:00.953Z,20.6
2022-08-07T05:36:00.789Z,20.7
2022-08-07T05:37:00.501Z,20.8
2022-08-07T05:38:08.378Z,20.9
2022-08-07T05:40:05.509Z,21
2022-08-07T05:40:06.551Z,21.1
2022-08-07T05:41:01.466Z,21.3
2022-08-07T05:42:05.335Z,21.3
2022-08-07T05:43:00.853Z,21.4
2022-08-07T05:44:12.376Z,21.4
2022-08-07T05:45:14.739Z,21.5
2022-08-07T05:46:00.855Z,21.6
2022-08-07T05:47:01.177Z,21.7
2022-08-07T05:48:02.840Z,21.9
2022-08-07T05:49:00.969Z,22
2022-08-07T05:50:01.216Z,22.1
2022-08-07T05:51:00.972Z,22.2
2022-08-07T05:52:00.785Z,22.2
2022-08-07T05:53:00.964Z,22.2
2022-08-07T05:54:12.983Z,22.2
2022-08-07T05:55:06.753Z,22.3
2022-08-07T05:56:03.196Z,22.6
2022-08-07T05:57:00.812Z,22.8
2022-08-07T05:58:00.505Z,23
2022-08-07T05:59:00.204Z,23
2022-08-07T06:00:01.410Z,23.1
2022-08-07T06:01:01.378Z,23.2
2022-08-07T06:02:01.901Z,23.2
2022-08-07T06:03:00.988Z,23.1
2022-08-07T06:04:01.384Z,23.2
2022-08-07T06:05:00.656Z,23.3
2022-08-07T06:06:00.355Z,23.6
2022-08-07T06:07:03.617Z,23.9
2022-08-07T06:08:13.747Z,24
2022-08-07T06:09:04.780Z,24
2022-08-07T06:10:05.325Z,24.2
2022-08-07T06:11:00.829Z,24.3
2022-08-07T06:12:01.103Z,24.4
2022-08-07T06:13:00.817Z,24.2
2022-08-07T06:14:12.652Z,24
2022-08-07T06:15:05.707Z,23.8
2022-08-07T06:16:01.221Z,23.8
2022-08-07T06:17:00.956Z,24
2022-08-07T06:18:01.452Z,24.1
2022-08-07T06:19:00.814Z,24.2
2022-08-07T06:20:04.489Z,24.3
2022-08-07T06:22:14.392Z,24.4
2022-08-07T06:22:15.555Z,24.5
2022-08-07T06:23:46.320Z,24.5
2022-08-07T06:24:41.901Z,24.4
2022-08-07T06:25:01.653Z,24.3
2022-08-07T06:26:01.279Z,24.3
2022-08-07T06:27:03.685Z,24.3
2022-08-07T06:28:02.781Z,24
2022-08-07T06:29:01.432Z,23.8
2022-08-07T06:30:00.840Z,23.6
2022-08-07T06:31:00.642Z,23.3
2022-08-07T06:32:00.309Z,23
2022-08-07T06:33:00.575Z,22.7
2022-08-07T06:34:00.487Z,22.4
2022-08-07T06:35:00.494Z,21.9
2022-08-07T06:36:12.061Z,21.6
2022-08-07T06:37:02.596Z,21.3
2022-08-07T06:38:02.395Z,21.1
2022-08-07T06:40:17.019Z,21
2022-08-07T06:40:17.434Z,20.8
2022-08-07T06:41:01.368Z,20.5
2022-08-07T06:42:03.426Z,20.3
2022-08-07T06:43:01.464Z,20.1
2022-08-07T06:44:10.723Z,20
2022-08-07T06:45:01.027Z,20
2022-08-07T06:46:00.973Z,19.9
2022-08-07T06:47:10.162Z,19.8
2022-08-07T06:48:00.838Z,19.8
2022-08-07T06:49:10.860Z,19.9
2022-08-07T06:50:03.957Z,19.8
2022-08-07T06:51:08.198Z,19.9
2022-08-07T06:52:07.437Z,19.9
2022-08-07T06:53:01.170Z,19.9
2022-08-07T06:55:29.206Z,19.8
2022-08-07T06:55:31.840Z,19.8
2022-08-07T06:56:02.043Z,19.7
2022-08-07T06:57:00.930Z,19.7
2022-08-07T06:58:00.581Z,19.7
2022-08-07T07:00:13.501Z,19.6
2022-08-07T07:00:13.862Z,19.7
2022-08-07T07:01:01.475Z,19.6
2022-08-07T07:02:00.762Z,19.6
2022-08-07T07:03:00.874Z,19.6
2022-08-07T07:04:08.272Z,19.6
2022-08-07T07:05:01.454Z,19.6
2022-08-07T07:06:03.653Z,19.6
2022-08-07T07:07:02.284Z,19.7
2022-08-07T07:08:06.883Z,19.8
2022-08-07T07:09:01.262Z,19.8
2022-08-07T07:10:01.492Z,19.8
2022-08-07T07:11:01.230Z,19.8
2022-08-07T07:12:07.443Z,19.7
2022-08-07T07:13:01.124Z,19.7
2022-08-07T07:14:02.517Z,19.7
2022-08-07T07:15:01.237Z,19.8
2022-08-07T07:16:01.770Z,19.8
2022-08-07T07:17:01.038Z,19.9
2022-08-07T07:18:01.016Z,20
2022-08-07T07:19:11.153Z,20
2022-08-07T07:20:00.857Z,20
2022-08-07T07:21:00.756Z,20
2022-08-07T07:22:05.111Z,20
2022-08-07T07:24:08.057Z,20.1
2022-08-07T07:24:08.733Z,20.1
2022-08-07T07:25:03.070Z,20.1
2022-08-07T07:26:34.981Z,20.1
2022-08-07T07:27:01.086Z,20.2
2022-08-07T07:28:02.463Z,20.2
2022-08-07T07:29:56.257Z,20.3
2022-08-07T07:30:09.965Z,20.3
2022-08-07T07:31:01.349Z,20.3
2022-08-07T07:32:01.527Z,20.3
2022-08-07T07:33:01.277Z,20.4
2022-08-07T07:34:01.088Z,20.4
2022-08-07T07:35:01.130Z,20.4
2022-08-07T07:36:04.758Z,20.5
2022-08-07T07:37:14.595Z,20.5
2022-08-07T07:38:02.652Z,20.5
2022-08-07T07:39:02.996Z,20.6
2022-08-07T07:40:01.586Z,20.6
2022-08-07T07:41:02.474Z,20.6
2022-08-07T07:42:09.098Z,20.6
2022-08-07T07:43:06.278Z,20.7
2022-08-07T07:44:17.239Z,20.7
2022-08-07T07:45:01.041Z,20.7
2022-08-07T07:46:38.295Z,20.6
2022-08-07T07:47:16.091Z,20.6
2022-08-07T07:48:00.661Z,20.6
2022-08-07T07:50:15.931Z,20.7
2022-08-07T07:50:34.517Z,20.7
2022-08-07T07:51:00.764Z,20.7
2022-08-07T07:52:00.646Z,20.7
2022-08-07T07:53:00.856Z,20.8
2022-08-07T07:54:00.758Z,20.8
2022-08-07T07:55:00.767Z,20.8
2022-08-07T07:56:01.437Z,20.8
2022-08-07T07:57:01.470Z,20.9
2022-08-07T07:58:01.277Z,21
2022-08-07T07:59:01.453Z,21
2022-08-07T08:00:00.536Z,21
2022-08-07T08:01:02.507Z,21
2022-08-07T08:02:10.258Z,21
2022-08-07T08:03:06.148Z,21
2022-08-07T08:04:09.620Z,21
2022-08-07T08:05:01.354Z,21
2022-08-07T08:06:00.661Z,21.1
2022-08-07T08:07:02.692Z,21.1
2022-08-07T08:08:01.967Z,21.2
2022-08-07T08:09:02.562Z,21.2
2022-08-07T08:10:04.991Z,21.3
2022-08-07T08:11:01.328Z,21.3
2022-08-07T08:12:03.838Z,21.3
2022-08-07T08:13:03.084Z,21.3
2022-08-07T08:14:00.793Z,21.3
2022-08-07T08:15:06.674Z,21.3
2022-08-07T08:16:01.863Z,21.3
2022-08-07T08:17:55.333Z,21.2
2022-08-07T08:18:17.605Z,21.2
2022-08-07T08:19:17.403Z,21.3
2022-08-07T08:20:22.184Z,21.3
2022-08-07T08:21:01.159Z,21.3
2022-08-07T08:22:03.585Z,21.3
2022-08-07T08:23:00.838Z,21.3
2022-08-07T08:24:00.664Z,21.3
2022-08-07T08:25:24.844Z,21.3
2022-08-07T08:26:06.251Z,21.4
2022-08-07T08:27:00.854Z,21.5
2022-08-07T08:28:01.837Z,21.5
2022-08-07T08:29:00.616Z,21.5
2022-08-07T08:30:09.040Z,21.4
2022-08-07T08:31:01.420Z,21.4
2022-08-07T08:32:18.274Z,21.3
2022-08-07T08:33:01.562Z,21.4
2022-08-07T08:34:01.574Z,21.4
2022-08-07T08:35:10.890Z,21.4
2022-08-07T08:36:00.879Z,21.4
2022-08-07T08:37:00.581Z,21.5
2022-08-07T08:38:03.346Z,21.5
2022-08-07T08:39:02.091Z,21.5
2022-08-07T08:40:16.307Z,21.6
2022-08-07T08:41:02.733Z,21.5
2022-08-07T08:42:01.385Z,21.5
2022-08-07T08:43:00.773Z,21.5
2022-08-07T08:44:00.470Z,21.5
2022-08-07T08:45:00.260Z,21.5
2022-08-07T08:46:01.450Z,21.6
2022-08-07T08:47:01.085Z,21.6
2022-08-07T08:48:00.860Z,21.5
2022-08-07T08:49:00.673Z,21.5
2022-08-07T08:50:04.855Z,21.5
2022-08-07T08:51:03.413Z,21.5
2022-08-07T08:52:14.495Z,21.5
2022-08-07T08:53:01.056Z,21.6
2022-08-07T08:54:00.883Z,21.6
2022-08-07T08:55:01.198Z,21.6
2022-08-07T08:56:00.678Z,21.7
2022-08-07T08:57:00.361Z,21.8
2022-08-07T08:58:01.130Z,21.8
2022-08-07T08:59:06.292Z,22
2022-08-07T09:00:00.945Z,22
2022-08-07T09:01:01.101Z,22
2022-08-07T09:02:01.410Z,22
2022-08-07T09:03:01.232Z,22
2022-08-07T09:04:01.208Z,22
2022-08-07T09:05:01.229Z,22.1
2022-08-07T09:06:00.936Z,22
2022-08-07T09:07:01.342Z,22
2022-08-07T09:08:01.448Z,22
2022-08-07T09:09:00.915Z,22
2022-08-07T09:10:03.213Z,22
2022-08-07T09:11:01.482Z,22
2022-08-07T09:12:20.051Z,22.1
2022-08-07T09:13:01.420Z,22
2022-08-07T09:14:01.086Z,22
2022-08-07T09:15:01.013Z,21.9
2022-08-07T09:16:24.458Z,21.9
2022-08-07T09:17:00.903Z,21.9
2022-08-07T09:18:10.008Z,21.8
2022-08-07T09:19:00.834Z,21.8
2022-08-07T09:20:01.326Z,21.8
2022-08-07T09:21:01.466Z,21.8
2022-08-07T09:22:22.600Z,21.9
2022-08-07T09:24:30.561Z,22
2022-08-07T09:24:33.253Z,22
2022-08-07T09:25:11.887Z,22
2022-08-07T09:26:00.869Z,22
2022-08-07T09:27:04.522Z,22.1
2022-08-07T09:28:01.988Z,22.1
2022-08-07T09:30:05.236Z,22
2022-08-07T09:30:07.938Z,22
2022-08-07T09:31:00.831Z,21.9
2022-08-07T09:32:00.930Z,22
2022-08-07T09:33:05.533Z,22
2022-08-07T09:34:00.939Z,22
2022-08-07T09:35:04.462Z,22
2022-08-07T09:36:05.793Z,22
2022-08-07T09:37:01.443Z,22
2022-08-07T09:38:00.729Z,21.9
2022-08-07T09:39:00.513Z,21.9
2022-08-07T09:40:02.560Z,22
2022-08-07T09:41:01.469Z,22
2022-08-07T09:42:05.849Z,22
2022-08-07T09:43:01.383Z,22
2022-08-07T09:44:06.532Z,22
2022-08-07T09:47:27.671Z,22
2022-08-07T09:47:42.665Z,22
2022-08-07T09:47:52.259Z,22
2022-08-07T09:48:06.205Z,22
2022-08-07T09:50:00.977Z,22.1
2022-08-07T09:50:19.121Z,22.1
2022-08-07T09:51:01.894Z,22.1
2022-08-07T09:52:15.852Z,22.1
2022-08-07T09:53:01.095Z,22.2
2022-08-07T09:54:02.917Z,22.2
2022-08-07T09:55:00.886Z,22.3
2022-08-07T09:56:03.489Z,22.3
2022-08-07T09:57:01.361Z,22.3
2022-08-07T09:58:00.747Z,22.3
2022-08-07T09:59:00.457Z,22.4
2022-08-07T10:00:01.802Z,22.5
2022-08-07T10:01:08.475Z,22.5
2022-08-07T10:02:01.320Z,22.5
2022-08-07T10:03:08.350Z,22.6
2022-08-07T10:04:07.015Z,22.6
2022-08-07T10:05:12.218Z,22.6
2022-08-07T10:06:11.974Z,22.6
2022-08-07T10:07:01.529Z,22.6
2022-08-07T10:08:01.693Z,22.6
2022-08-07T10:09:00.847Z,22.6
2022-08-07T10:10:02.883Z,22.6
2022-08-07T10:11:16.843Z,22.6
2022-08-07T10:12:11.770Z,22.5
2022-08-07T10:13:00.539Z,22.5
2022-08-07T10:14:02.354Z,22.4
2022-08-07T10:15:01.352Z,22.4
2022-08-07T10:16:09.236Z,22.5
2022-08-07T10:17:01.278Z,22.5
2022-08-07T10:18:03.060Z,22.5
2022-08-07T10:19:01.239Z,22.6
2022-08-07T10:20:00.879Z,22.6
2022-08-07T10:21:50.772Z,22.7
2022-08-07T10:22:14.906Z,22.7
2022-08-07T10:23:00.716Z,22.7
2022-08-07T10:24:05.439Z,22.7
2022-08-07T10:25:00.639Z,22.7
2022-08-07T10:26:14.049Z,22.7
2022-08-07T10:27:01.187Z,22.7
2022-08-07T10:28:02.639Z,22.8
2022-08-07T10:29:02.404Z,22.8
2022-08-07T10:30:00.782Z,22.8
2022-08-07T10:31:15.518Z,22.8
2022-08-07T10:32:02.505Z,22.7
2022-08-07T10:33:01.357Z,22.8
2022-08-07T10:34:06.174Z,22.8
2022-08-07T10:35:01.435Z,22.8
2022-08-07T10:36:05.584Z,22.9
2022-08-07T10:37:03.943Z,23
2022-08-07T10:38:15.500Z,23.1
2022-08-07T10:39:00.971Z,23.1
2022-08-07T10:40:05.530Z,23.1
2022-08-07T10:41:01.385Z,23.1
2022-08-07T10:42:09.700Z,23
2022-08-07T10:43:01.168Z,23
2022-08-07T10:44:02.360Z,23.1
2022-08-07T10:45:00.876Z,23.1
2022-08-07T10:46:01.176Z,23.1
2022-08-07T10:47:00.882Z,23.1
2022-08-07T10:48:03.538Z,23.1
2022-08-07T10:49:00.589Z,23.1
2022-08-07T10:50:00.264Z,23.1
2022-08-07T10:50:59.995Z,23.1
2022-08-07T10:52:13.227Z,23
2022-08-07T10:53:05.173Z,23
2022-08-07T10:54:00.976Z,22.9
2022-08-07T10:55:01.795Z,22.8
2022-08-07T10:56:02.453Z,22.7
2022-08-07T10:57:00.884Z,22.6
2022-08-07T10:58:01.079Z,22.6
2022-08-07T10:59:01.315Z,22.6
2022-08-07T11:00:00.869Z,22.6
2022-08-07T11:01:01.144Z,22.6
2022-08-07T11:02:05.447Z,22.6
2022-08-07T11:03:01.371Z,22.6
2022-08-07T11:04:23.304Z,22.5
2022-08-07T11:05:03.254Z,22.6
2022-08-07T11:06:01.555Z,22.6
2022-08-07T11:07:00.965Z,22.6
2022-08-07T11:08:03.480Z,22.6
2022-08-07T11:09:00.983Z,22.6
2022-08-07T11:10:10.127Z,22.6
2022-08-07T11:11:00.950Z,22.5
2022-08-07T11:12:00.666Z,22.5
2022-08-07T11:13:01.534Z,22.5
2022-08-07T11:14:45.667Z,22.5
2022-08-07T11:15:01.308Z,22.5
2022-08-07T11:16:00.260Z,22.5
2022-08-07T11:17:02.136Z,22.5
2022-08-07T11:18:03.622Z,22.5
2022-08-07T11:19:00.889Z,22.6
2022-08-07T11:20:03.324Z,22.6
2022-08-07T11:21:00.653Z,22.7
2022-08-07T11:22:00.515Z,22.8
2022-08-07T11:23:01.513Z,22.8
2022-08-07T11:24:01.149Z,22.9
2022-08-07T11:25:06.492Z,23
2022-08-07T11:26:06.050Z,23
2022-08-07T11:27:01.318Z,23.1
2022-08-07T11:28:04.293Z,23.1
2022-08-07T11:29:01.174Z,23.2
2022-08-07T11:30:17.520Z,23.2
2022-08-07T11:31:01.589Z,23.3
2022-08-07T11:32:00.657Z,23.3
2022-08-07T11:33:02.524Z,23.3
2022-08-07T11:34:00.875Z,23.2
2022-08-07T11:35:00.692Z,23.2
2022-08-07T11:36:01.758Z,23.1
2022-08-07T11:37:01.209Z,23.1
2022-08-07T11:38:12.918Z,23.1
2022-08-07T11:39:01.209Z,23.2
2022-08-07T11:40:03.559Z,23.2
2022-08-07T11:41:02.133Z,23.3
2022-08-07T11:42:03.173Z,23.2
2022-08-07T11:43:01.928Z,23.3
2022-08-07T11:44:12.283Z,23.3
2022-08-07T11:45:00.666Z,23.3
2022-08-07T11:46:00.863Z,23.3
2022-08-07T11:47:01.582Z,23.3
2022-08-07T11:48:02.591Z,23.3
2022-08-07T11:49:50.346Z,23.4
2022-08-07T11:50:32.991Z,23.5
2022-08-07T11:51:02.447Z,23.4
2022-08-07T11:52:00.592Z,23.4
2022-08-07T11:53:01.930Z,23.4
2022-08-07T11:54:02.687Z,23.4
2022-08-07T11:55:01.585Z,23.4
2022-08-07T11:56:24.767Z,23.3
2022-08-07T11:57:02.369Z,23.3
2022-08-07T11:58:01.846Z,23.3
2022-08-07T11:59:01.066Z,23.3
2022-08-07T12:00:10.682Z,23.3
2022-08-07T12:01:04.380Z,23.3
2022-08-07T12:02:02.668Z,23.3
2022-08-07T12:03:01.437Z,23.3
2022-08-07T12:04:01.608Z,23.3
2022-08-07T12:05:01.175Z,23.3
2022-08-07T12:06:01.219Z,23.3
2022-08-07T12:07:17.316Z,23.3
2022-08-07T12:08:04.117Z,23.2
2022-08-07T12:09:00.701Z,23.2
2022-08-07T12:10:02.115Z,23.2
2022-08-07T12:11:20.197Z,23.2
2022-08-07T12:12:09.709Z,23.2
2022-08-07T12:13:00.727Z,23.3
2022-08-07T12:14:00.546Z,23.3
2022-08-07T12:15:01.317Z,23.3
2022-08-07T12:16:05.954Z,23.3
2022-08-07T12:17:19.947Z,23.3
2022-08-07T12:18:01.100Z,23.2
2022-08-07T12:19:01.277Z,23.2
2022-08-07T12:20:06.958Z,23.2
2022-08-07T12:21:01.028Z,23.2
2022-08-07T12:22:39.678Z,23.2
2022-08-07T12:23:00.802Z,23.1
2022-08-07T12:24:05.831Z,23.2
2022-08-07T12:25:02.246Z,23.3
2022-08-07T12:26:23.565Z,23.4
2022-08-07T12:27:01.341Z,23.5
2022-08-07T12:28:08.767Z,23.6
2022-08-07T12:29:00.983Z,23.6
2022-08-07T12:30:00.639Z,23.7
2022-08-07T12:31:00.752Z,23.7
2022-08-07T12:32:03.687Z,23.6
2022-08-07T12:33:00.856Z,23.6
2022-08-07T12:34:01.880Z,23.6
2022-08-07T12:35:01.624Z,23.6
2022-08-07T12:36:02.372Z,23.7
2022-08-07T12:37:08.332Z,23.7
2022-08-07T12:38:17.800Z,23.7
2022-08-07T12:39:01.653Z,23.6
2022-08-07T12:40:01.375Z,23.6
2022-08-07T12:41:01.236Z,23.5
2022-08-07T12:42:00.930Z,23.5
2022-08-07T12:43:00.805Z,23.5
2022-08-07T12:44:05.300Z,23.4
2022-08-07T12:45:04.347Z,23.3
2022-08-07T12:46:01.107Z,23.3
2022-08-07T12:47:00.748Z,23.3
2022-08-07T12:48:01.034Z,23.4
2022-08-07T12:49:10.074Z,23.5
2022-08-07T12:50:05.019Z,23.5
2022-08-07T12:51:00.638Z,23.5
2022-08-07T12:52:13.702Z,23.5
2022-08-07T12:53:00.784Z,23.6
2022-08-07T12:54:23.897Z,23.6
2022-08-07T12:55:03.816Z,23.6
2022-08-07T12:56:02.354Z,23.6
2022-08-07T12:57:07.400Z,23.6
2022-08-07T12:58:02.505Z,23.5
2022-08-07T12:59:00.939Z,23.5
2022-08-07T13:00:00.636Z,23.5
2022-08-07T13:01:00.775Z,23.6
2022-08-07T13:02:00.955Z,23.7
2022-08-07T13:03:00.592Z,23.7
2022-08-07T13:04:04.785Z,23.7
2022-08-07T13:05:02.686Z,23.6
2022-08-07T13:06:04.633Z,23.6
2022-08-07T13:07:02.278Z,23.6
2022-08-07T13:08:13.842Z,23.6
2022-08-07T13:09:01.157Z,23.6
2022-08-07T13:10:17.392Z,23.6
2022-08-07T13:11:01.049Z,23.6
2022-08-07T13:12:03.559Z,23.6
2022-08-07T13:13:00.816Z,23.6
2022-08-07T13:14:00.524Z,23.6
2022-08-07T13:15:01.497Z,23.7
2022-08-07T13:16:01.112Z,23.8
2022-08-07T13:17:00.757Z,23.8
2022-08-07T13:18:00.396Z,23.9
2022-08-07T13:19:01.374Z,24
2022-08-07T13:20:01.384Z,24
2022-08-07T13:21:02.620Z,24
2022-08-07T13:22:12.359Z,24
2022-08-07T13:23:03.960Z,23.9
2022-08-07T13:24:04.722Z,23.8
2022-08-07T13:25:00.409Z,23.8